sensor_id;sensor_type;location;lat;lon;timestamp;temperature;humidity
35970;DHT22;22448;51.298;6.430;2024-02-23T00:00:54;5.00;99.90
35970;DHT22;22448;51.298;6.430;2024-02-23T00:03:21;5.00;99.90
35970;DHT22;22448;51.298;6.430;2024-02-23T00:05:47;4.90;99.90
35970;DHT22;22448;51.298;6.430;2024-02-23T00:08:15;4.90;99.90
35970;DHT22;22448;51.298;6.430;2024-02-23T00:10:42;4.90;99.90
35970;DHT22;22448;51.298;6.430;2024-02-23T00:13:09;4.80;99.90
35970;DHT22;22448;51.298;6.430;2024-02-23T00:15:36;4.70;99.90
35970;DHT22;22448;51.298;6.430;2024-02-23T00:18:03;4.70;99.90
35970;DHT22;22448;51.298;6.430;2024-02-23T00:20:31;4.60;99.90
35970;DHT22;22448;51.298;6.430;2024-02-23T00:22:58;4.60;99.90
35970;DHT22;22448;51.298;6.430;2024-02-23T00:25:25;4.70;99.90
35970;DHT22;22448;51.298;6.430;2024-02-23T00:27:52;4.70;99.90
35970;DHT22;22448;51.298;6.430;2024-02-23T00:30:19;4.70;99.90
35970;DHT22;22448;51.298;6.430;2024-02-23T00:32:46;4.70;99.90
35970;DHT22;22448;51.298;6.430;2024-02-23T00:35:13;4.60;99.90
35970;DHT22;22448;51.298;6.430;2024-02-23T00:37:41;4.60;99.90
35970;DHT22;22448;51.298;6.430;2024-02-23T00:40:09;4.50;99.90
35970;DHT22;22448;51.298;6.430;2024-02-23T00:42:37;4.50;99.90
35970;DHT22;22448;51.298;6.430;2024-02-23T00:45:05;4.50;99.90
35970;DHT22;22448;51.298;6.430;2024-02-23T00:47:32;4.50;99.90
35970;DHT22;22448;51.298;6.430;2024-02-23T00:49:59;4.50;99.90
35970;DHT22;22448;51.298;6.430;2024-02-23T00:52:26;4.40;99.90
35970;DHT22;22448;51.298;6.430;2024-02-23T00:54:54;4.50;99.90
35970;DHT22;22448;51.298;6.430;2024-02-23T00:57:21;4.50;99.90
35970;DHT22;22448;51.298;6.430;2024-02-23T00:59:54;4.50;99.90
35970;DHT22;22448;51.298;6.430;2024-02-23T01:02:21;4.50;99.90
35970;DHT22;22448;51.298;6.430;2024-02-23T01:04:48;4.40;99.90
35970;DHT22;22448;51.298;6.430;2024-02-23T01:07:16;4.40;99.90
35970;DHT22;22448;51.298;6.430;2024-02-23T01:09:43;4.40;99.90
35970;DHT22;22448;51.298;6.430;2024-02-23T01:12:10;4.40;99.90
35970;DHT22;22448;51.298;6.430;2024-02-23T01:14:37;4.50;99.90
35970;DHT22;22448;51.298;6.430;2024-02-23T01:17:04;4.50;99.90
35970;DHT22;22448;51.298;6.430;2024-02-23T01:19:31;4.50;99.90
35970;DHT22;22448;51.298;6.430;2024-02-23T01:21:58;4.50;99.90
35970;DHT22;22448;51.298;6.430;2024-02-23T01:24:28;4.60;99.90
35970;DHT22;22448;51.298;6.430;2024-02-23T01:26:56;4.60;99.90
35970;DHT22;22448;51.298;6.430;2024-02-23T01:29:25;4.60;99.90
35970;DHT22;22448;51.298;6.430;2024-02-23T01:31:53;4.60;99.90
35970;DHT22;22448;51.298;6.430;2024-02-23T01:34:21;4.70;99.90
35970;DHT22;22448;51.298;6.430;2024-02-23T01:36:49;4.70;99.90
35970;DHT22;22448;51.298;6.430;2024-02-23T01:39:16;4.70;99.90
35970;DHT22;22448;51.298;6.430;2024-02-23T01:41:43;4.70;99.90
35970;DHT22;22448;51.298;6.430;2024-02-23T01:44:11;4.80;99.90
35970;DHT22;22448;51.298;6.430;2024-02-23T01:46:38;5.00;99.90
35970;DHT22;22448;51.298;6.430;2024-02-23T01:49:06;5.10;99.90
35970;DHT22;22448;51.298;6.430;2024-02-23T01:51:35;5.00;99.90
35970;DHT22;22448;51.298;6.430;2024-02-23T01:54:02;5.00;99.90
35970;DHT22;22448;51.298;6.430;2024-02-23T01:56:32;4.90;99.90
35970;DHT22;22448;51.298;6.430;2024-02-23T01:59:02;4.90;99.90
35970;DHT22;22448;51.298;6.430;2024-02-23T02:01:30;4.80;99.90
35970;DHT22;22448;51.298;6.430;2024-02-23T02:03:58;4.80;99.90
35970;DHT22;22448;51.298;6.430;2024-02-23T02:06:26;4.70;99.90
35970;DHT22;22448;51.298;6.430;2024-02-23T02:08:53;4.70;99.90
35970;DHT22;22448;51.298;6.430;2024-02-23T02:11:20;4.70;99.90
35970;DHT22;22448;51.298;6.430;2024-02-23T02:13:48;4.60;99.90
35970;DHT22;22448;51.298;6.430;2024-02-23T02:16:15;4.60;99.90
35970;DHT22;22448;51.298;6.430;2024-02-23T02:18:42;4.60;99.90
35970;DHT22;22448;51.298;6.430;2024-02-23T02:21:11;4.60;99.90
35970;DHT22;22448;51.298;6.430;2024-02-23T02:23:39;4.50;99.90
35970;DHT22;22448;51.298;6.430;2024-02-23T02:26:06;4.50;99.90
35970;DHT22;22448;51.298;6.430;2024-02-23T02:28:33;4.50;99.90
35970;DHT22;22448;51.298;6.430;2024-02-23T02:31:01;4.50;99.90
35970;DHT22;22448;51.298;6.430;2024-02-23T02:33:28;4.50;99.90
35970;DHT22;22448;51.298;6.430;2024-02-23T02:35:55;4.50;99.90
35970;DHT22;22448;51.298;6.430;2024-02-23T02:38:22;4.50;99.90
35970;DHT22;22448;51.298;6.430;2024-02-23T02:40:49;4.50;99.90
35970;DHT22;22448;51.298;6.430;2024-02-23T02:43:16;4.50;99.90
35970;DHT22;22448;51.298;6.430;2024-02-23T02:45:44;4.50;99.90
35970;DHT22;22448;51.298;6.430;2024-02-23T02:48:12;4.40;99.90
35970;DHT22;22448;51.298;6.430;2024-02-23T02:50:39;4.40;99.90
35970;DHT22;22448;51.298;6.430;2024-02-23T02:53:06;4.40;99.90
35970;DHT22;22448;51.298;6.430;2024-02-23T02:55:33;4.40;99.90
35970;DHT22;22448;51.298;6.430;2024-02-23T02:58:00;4.40;99.90
35970;DHT22;22448;51.298;6.430;2024-02-23T03:00:27;4.40;99.90
35970;DHT22;22448;51.298;6.430;2024-02-23T03:02:54;4.40;99.90
35970;DHT22;22448;51.298;6.430;2024-02-23T03:05:22;4.40;99.90
35970;DHT22;22448;51.298;6.430;2024-02-23T03:07:49;4.40;99.90
35970;DHT22;22448;51.298;6.430;2024-02-23T03:10:16;4.40;99.90
35970;DHT22;22448;51.298;6.430;2024-02-23T03:12:43;4.50;99.90
35970;DHT22;22448;51.298;6.430;2024-02-23T03:15:10;4.40;99.90
35970;DHT22;22448;51.298;6.430;2024-02-23T03:17:38;4.40;99.90
35970;DHT22;22448;51.298;6.430;2024-02-23T03:20:05;4.40;99.90
35970;DHT22;22448;51.298;6.430;2024-02-23T03:22:35;4.40;99.90
35970;DHT22;22448;51.298;6.430;2024-02-23T03:25:04;4.40;99.90
35970;DHT22;22448;51.298;6.430;2024-02-23T03:27:36;4.40;99.90
35970;DHT22;22448;51.298;6.430;2024-02-23T03:30:04;4.40;99.90
35970;DHT22;22448;51.298;6.430;2024-02-23T03:32:32;4.40;99.90
35970;DHT22;22448;51.298;6.430;2024-02-23T03:35:04;4.40;99.90
35970;DHT22;22448;51.298;6.430;2024-02-23T03:37:32;4.40;99.90
35970;DHT22;22448;51.298;6.430;2024-02-23T03:39:59;4.40;99.90
35970;DHT22;22448;51.298;6.430;2024-02-23T03:42:27;4.50;99.90
35970;DHT22;22448;51.298;6.430;2024-02-23T03:44:55;4.60;99.90
35970;DHT22;22448;51.298;6.430;2024-02-23T03:47:22;4.50;99.90
35970;DHT22;22448;51.298;6.430;2024-02-23T03:49:49;4.50;99.90
35970;DHT22;22448;51.298;6.430;2024-02-23T03:52:16;4.50;99.90
35970;DHT22;22448;51.298;6.430;2024-02-23T03:54:43;4.50;99.90
35970;DHT22;22448;51.298;6.430;2024-02-23T03:57:10;4.50;99.90
35970;DHT22;22448;51.298;6.430;2024-02-23T03:59:37;4.40;99.90
35970;DHT22;22448;51.298;6.430;2024-02-23T04:02:04;4.50;99.90
35970;DHT22;22448;51.298;6.430;2024-02-23T04:04:33;4.50;99.90
35970;DHT22;22448;51.298;6.430;2024-02-23T04:07:00;4.60;99.90
35970;DHT22;22448;51.298;6.430;2024-02-23T04:09:27;4.70;99.90
35970;DHT22;22448;51.298;6.430;2024-02-23T04:11:55;4.80;99.90
35970;DHT22;22448;51.298;6.430;2024-02-23T04:14:22;4.80;99.90
35970;DHT22;22448;51.298;6.430;2024-02-23T04:16:49;4.80;99.90
35970;DHT22;22448;51.298;6.430;2024-02-23T04:19:16;4.80;99.90
35970;DHT22;22448;51.298;6.430;2024-02-23T04:21:44;4.80;99.90
35970;DHT22;22448;51.298;6.430;2024-02-23T04:24:12;4.70;99.90
35970;DHT22;22448;51.298;6.430;2024-02-23T04:26:39;4.60;99.90
35970;DHT22;22448;51.298;6.430;2024-02-23T04:29:06;4.60;99.90
35970;DHT22;22448;51.298;6.430;2024-02-23T04:31:36;4.50;99.90
35970;DHT22;22448;51.298;6.430;2024-02-23T04:34:03;4.50;99.90
35970;DHT22;22448;51.298;6.430;2024-02-23T04:36:31;4.50;99.90
35970;DHT22;22448;51.298;6.430;2024-02-23T04:38:58;4.40;99.90
35970;DHT22;22448;51.298;6.430;2024-02-23T04:41:25;4.40;99.90
35970;DHT22;22448;51.298;6.430;2024-02-23T04:43:52;4.40;99.90
35970;DHT22;22448;51.298;6.430;2024-02-23T04:46:28;4.40;99.90
35970;DHT22;22448;51.298;6.430;2024-02-23T04:48:55;4.30;99.90
35970;DHT22;22448;51.298;6.430;2024-02-23T04:51:22;4.40;99.90
35970;DHT22;22448;51.298;6.430;2024-02-23T04:53:50;4.40;99.90
35970;DHT22;22448;51.298;6.430;2024-02-23T04:56:17;4.50;99.90
35970;DHT22;22448;51.298;6.430;2024-02-23T04:58:49;4.60;99.90
35970;DHT22;22448;51.298;6.430;2024-02-23T05:01:16;4.60;99.90
35970;DHT22;22448;51.298;6.430;2024-02-23T05:03:43;4.70;99.90
35970;DHT22;22448;51.298;6.430;2024-02-23T05:06:10;4.80;99.90
35970;DHT22;22448;51.298;6.430;2024-02-23T05:08:37;4.90;99.90
35970;DHT22;22448;51.298;6.430;2024-02-23T05:11:05;4.90;99.90
35970;DHT22;22448;51.298;6.430;2024-02-23T05:13:32;4.90;99.90
35970;DHT22;22448;51.298;6.430;2024-02-23T05:15:59;4.80;99.90
35970;DHT22;22448;51.298;6.430;2024-02-23T05:18:26;4.80;99.90
35970;DHT22;22448;51.298;6.430;2024-02-23T05:20:53;4.70;99.90
35970;DHT22;22448;51.298;6.430;2024-02-23T05:23:20;4.60;99.90
35970;DHT22;22448;51.298;6.430;2024-02-23T05:25:48;4.60;99.90
35970;DHT22;22448;51.298;6.430;2024-02-23T05:28:15;4.50;99.90
35970;DHT22;22448;51.298;6.430;2024-02-23T05:30:42;4.50;99.90
35970;DHT22;22448;51.298;6.430;2024-02-23T05:33:09;4.40;99.90
35970;DHT22;22448;51.298;6.430;2024-02-23T05:35:36;4.50;99.90
35970;DHT22;22448;51.298;6.430;2024-02-23T05:38:03;4.60;99.90
35970;DHT22;22448;51.298;6.430;2024-02-23T05:40:32;4.70;99.90
35970;DHT22;22448;51.298;6.430;2024-02-23T05:43:00;4.80;99.90
35970;DHT22;22448;51.298;6.430;2024-02-23T05:45:27;4.90;99.90
35970;DHT22;22448;51.298;6.430;2024-02-23T05:47:54;4.90;99.90
35970;DHT22;22448;51.298;6.430;2024-02-23T05:50:22;5.00;99.90
35970;DHT22;22448;51.298;6.430;2024-02-23T05:52:49;5.00;99.90
35970;DHT22;22448;51.298;6.430;2024-02-23T05:55:16;5.10;99.90
35970;DHT22;22448;51.298;6.430;2024-02-23T05:57:43;5.10;99.90
35970;DHT22;22448;51.298;6.430;2024-02-23T06:00:11;5.10;99.90
35970;DHT22;22448;51.298;6.430;2024-02-23T06:02:42;5.10;99.90
35970;DHT22;22448;51.298;6.430;2024-02-23T06:05:09;5.10;99.90
35970;DHT22;22448;51.298;6.430;2024-02-23T06:07:36;5.10;99.90
35970;DHT22;22448;51.298;6.430;2024-02-23T06:10:04;5.10;99.90
35970;DHT22;22448;51.298;6.430;2024-02-23T06:12:32;5.10;99.90
35970;DHT22;22448;51.298;6.430;2024-02-23T06:14:59;5.10;99.90
35970;DHT22;22448;51.298;6.430;2024-02-23T06:17:25;5.10;99.90
35970;DHT22;22448;51.298;6.430;2024-02-23T06:19:53;5.10;99.90
35970;DHT22;22448;51.298;6.430;2024-02-23T06:22:20;5.20;99.90
35970;DHT22;22448;51.298;6.430;2024-02-23T06:24:52;5.10;99.90
35970;DHT22;22448;51.298;6.430;2024-02-23T06:27:19;5.10;99.90
35970;DHT22;22448;51.298;6.430;2024-02-23T06:29:46;5.20;99.90
35970;DHT22;22448;51.298;6.430;2024-02-23T06:32:13;5.20;99.90
35970;DHT22;22448;51.298;6.430;2024-02-23T06:34:41;5.20;99.90
35970;DHT22;22448;51.298;6.430;2024-02-23T06:37:08;5.20;99.90
35970;DHT22;22448;51.298;6.430;2024-02-23T06:39:35;5.20;99.90
35970;DHT22;22448;51.298;6.430;2024-02-23T06:42:02;5.20;99.90
35970;DHT22;22448;51.298;6.430;2024-02-23T06:44:31;5.20;99.90
35970;DHT22;22448;51.298;6.430;2024-02-23T06:46:58;5.20;99.90
35970;DHT22;22448;51.298;6.430;2024-02-23T06:49:25;5.20;99.90
35970;DHT22;22448;51.298;6.430;2024-02-23T06:51:53;5.20;99.90
35970;DHT22;22448;51.298;6.430;2024-02-23T06:54:20;5.20;99.90
35970;DHT22;22448;51.298;6.430;2024-02-23T06:56:47;5.20;99.90
35970;DHT22;22448;51.298;6.430;2024-02-23T06:59:14;5.30;99.90
35970;DHT22;22448;51.298;6.430;2024-02-23T07:01:49;5.30;99.90
35970;DHT22;22448;51.298;6.430;2024-02-23T07:04:17;5.30;99.90
35970;DHT22;22448;51.298;6.430;2024-02-23T07:06:44;5.30;99.90
35970;DHT22;22448;51.298;6.430;2024-02-23T07:09:11;5.40;99.90
35970;DHT22;22448;51.298;6.430;2024-02-23T07:11:39;5.50;99.90
35970;DHT22;22448;51.298;6.430;2024-02-23T07:14:08;5.50;99.90
35970;DHT22;22448;51.298;6.430;2024-02-23T07:16:39;5.50;99.90
35970;DHT22;22448;51.298;6.430;2024-02-23T07:19:07;5.50;99.90
35970;DHT22;22448;51.298;6.430;2024-02-23T07:21:34;5.60;99.90
35970;DHT22;22448;51.298;6.430;2024-02-23T07:24:02;5.60;99.90
35970;DHT22;22448;51.298;6.430;2024-02-23T07:26:31;5.70;99.90
35970;DHT22;22448;51.298;6.430;2024-02-23T07:28:59;5.70;99.90
35970;DHT22;22448;51.298;6.430;2024-02-23T07:31:26;5.70;99.90
35970;DHT22;22448;51.298;6.430;2024-02-23T07:33:54;5.70;99.90
35970;DHT22;22448;51.298;6.430;2024-02-23T07:36:22;5.80;99.90
35970;DHT22;22448;51.298;6.430;2024-02-23T07:38:49;5.80;99.90
35970;DHT22;22448;51.298;6.430;2024-02-23T07:41:19;5.80;99.90
35970;DHT22;22448;51.298;6.430;2024-02-23T07:43:48;5.80;99.90
35970;DHT22;22448;51.298;6.430;2024-02-23T07:46:16;5.80;99.90
35970;DHT22;22448;51.298;6.430;2024-02-23T07:48:43;6.00;99.90
35970;DHT22;22448;51.298;6.430;2024-02-23T07:51:10;6.10;99.90
35970;DHT22;22448;51.298;6.430;2024-02-23T07:53:37;6.10;99.90
35970;DHT22;22448;51.298;6.430;2024-02-23T07:56:08;6.60;99.90
35970;DHT22;22448;51.298;6.430;2024-02-23T07:58:35;6.90;99.90
35970;DHT22;22448;51.298;6.430;2024-02-23T08:01:02;7.00;99.90
35970;DHT22;22448;51.298;6.430;2024-02-23T08:03:30;7.10;99.90
35970;DHT22;22448;51.298;6.430;2024-02-23T08:05:58;7.10;99.90
35970;DHT22;22448;51.298;6.430;2024-02-23T08:08:30;7.20;99.90
35970;DHT22;22448;51.298;6.430;2024-02-23T08:11:00;8.30;99.90
35970;DHT22;22448;51.298;6.430;2024-02-23T08:13:27;9.50;99.90
35970;DHT22;22448;51.298;6.430;2024-02-23T08:15:54;9.00;99.90
35970;DHT22;22448;51.298;6.430;2024-02-23T08:18:21;9.20;99.90
35970;DHT22;22448;51.298;6.430;2024-02-23T08:20:51;9.10;99.90
35970;DHT22;22448;51.298;6.430;2024-02-23T08:23:18;8.40;99.90
35970;DHT22;22448;51.298;6.430;2024-02-23T08:25:50;8.60;99.90
35970;DHT22;22448;51.298;6.430;2024-02-23T08:28:20;8.70;99.90
35970;DHT22;22448;51.298;6.430;2024-02-23T08:30:47;8.60;99.90
35970;DHT22;22448;51.298;6.430;2024-02-23T08:33:14;8.50;99.90
35970;DHT22;22448;51.298;6.430;2024-02-23T08:35:41;8.10;99.90
35970;DHT22;22448;51.298;6.430;2024-02-23T08:38:10;7.90;99.90
35970;DHT22;22448;51.298;6.430;2024-02-23T08:40:38;8.40;99.90
35970;DHT22;22448;51.298;6.430;2024-02-23T08:43:06;8.20;99.90
35970;DHT22;22448;51.298;6.430;2024-02-23T08:45:33;8.50;99.90
35970;DHT22;22448;51.298;6.430;2024-02-23T08:48:00;9.60;99.90
35970;DHT22;22448;51.298;6.430;2024-02-23T08:50:28;9.80;99.90
35970;DHT22;22448;51.298;6.430;2024-02-23T08:52:55;9.20;99.90
35970;DHT22;22448;51.298;6.430;2024-02-23T08:55:22;8.70;99.90
35970;DHT22;22448;51.298;6.430;2024-02-23T08:57:50;8.20;99.90
35970;DHT22;22448;51.298;6.430;2024-02-23T09:00:17;8.10;99.90
35970;DHT22;22448;51.298;6.430;2024-02-23T09:02:44;8.40;99.90
35970;DHT22;22448;51.298;6.430;2024-02-23T09:05:12;8.40;99.90
35970;DHT22;22448;51.298;6.430;2024-02-23T09:07:39;8.40;99.90
35970;DHT22;22448;51.298;6.430;2024-02-23T09:10:07;8.30;99.90
35970;DHT22;22448;51.298;6.430;2024-02-23T09:12:34;8.20;99.90
35970;DHT22;22448;51.298;6.430;2024-02-23T09:15:02;8.10;99.90
35970;DHT22;22448;51.298;6.430;2024-02-23T09:17:29;7.90;99.90
35970;DHT22;22448;51.298;6.430;2024-02-23T09:19:56;7.80;99.90
35970;DHT22;22448;51.298;6.430;2024-02-23T09:22:24;7.60;99.90
35970;DHT22;22448;51.298;6.430;2024-02-23T09:24:51;7.50;99.90
35970;DHT22;22448;51.298;6.430;2024-02-23T09:27:20;7.50;99.90
35970;DHT22;22448;51.298;6.430;2024-02-23T09:29:48;7.40;99.90
35970;DHT22;22448;51.298;6.430;2024-02-23T09:32:15;7.40;99.90
35970;DHT22;22448;51.298;6.430;2024-02-23T09:34:42;7.40;99.90
35970;DHT22;22448;51.298;6.430;2024-02-23T09:37:10;7.40;99.90
35970;DHT22;22448;51.298;6.430;2024-02-23T09:39:37;7.40;99.90
35970;DHT22;22448;51.298;6.430;2024-02-23T09:42:08;7.40;99.90
35970;DHT22;22448;51.298;6.430;2024-02-23T09:44:37;7.40;99.90
35970;DHT22;22448;51.298;6.430;2024-02-23T09:47:05;7.40;99.90
35970;DHT22;22448;51.298;6.430;2024-02-23T09:49:38;7.50;99.90
35970;DHT22;22448;51.298;6.430;2024-02-23T09:52:08;7.50;99.90
35970;DHT22;22448;51.298;6.430;2024-02-23T09:54:39;7.50;99.90
35970;DHT22;22448;51.298;6.430;2024-02-23T09:57:08;7.50;99.90
35970;DHT22;22448;51.298;6.430;2024-02-23T09:59:36;7.60;99.90
35970;DHT22;22448;51.298;6.430;2024-02-23T10:02:10;7.60;99.90
35970;DHT22;22448;51.298;6.430;2024-02-23T10:04:39;7.50;99.90
35970;DHT22;22448;51.298;6.430;2024-02-23T10:07:07;7.60;99.90
35970;DHT22;22448;51.298;6.430;2024-02-23T10:09:35;7.60;99.90
35970;DHT22;22448;51.298;6.430;2024-02-23T10:12:03;7.70;99.90
35970;DHT22;22448;51.298;6.430;2024-02-23T10:14:30;7.70;99.90
35970;DHT22;22448;51.298;6.430;2024-02-23T10:16:57;7.70;99.90
35970;DHT22;22448;51.298;6.430;2024-02-23T10:19:25;7.60;99.90
35970;DHT22;22448;51.298;6.430;2024-02-23T10:21:58;7.60;99.90
35970;DHT22;22448;51.298;6.430;2024-02-23T10:24:26;7.50;99.90
35970;DHT22;22448;51.298;6.430;2024-02-23T10:26:53;7.50;99.90
35970;DHT22;22448;51.298;6.430;2024-02-23T10:29:20;7.60;99.90
35970;DHT22;22448;51.298;6.430;2024-02-23T10:31:51;7.70;99.90
35970;DHT22;22448;51.298;6.430;2024-02-23T10:34:19;7.90;99.90
35970;DHT22;22448;51.298;6.430;2024-02-23T10:36:47;8.00;99.90
35970;DHT22;22448;51.298;6.430;2024-02-23T10:39:17;8.00;99.90
35970;DHT22;22448;51.298;6.430;2024-02-23T10:41:58;8.00;99.90
35970;DHT22;22448;51.298;6.430;2024-02-23T10:44:30;8.10;99.90
35970;DHT22;22448;51.298;6.430;2024-02-23T10:46:58;8.00;99.90
35970;DHT22;22448;51.298;6.430;2024-02-23T10:49:29;8.00;99.90
35970;DHT22;22448;51.298;6.430;2024-02-23T10:51:58;8.00;99.90
35970;DHT22;22448;51.298;6.430;2024-02-23T10:54:26;8.00;99.90
35970;DHT22;22448;51.298;6.430;2024-02-23T10:56:53;7.90;99.90
35970;DHT22;22448;51.298;6.430;2024-02-23T10:59:23;7.90;99.90
35970;DHT22;22448;51.298;6.430;2024-02-23T11:01:54;8.00;99.90
35970;DHT22;22448;51.298;6.430;2024-02-23T11:04:26;8.20;99.90
35970;DHT22;22448;51.298;6.430;2024-02-23T11:06:56;8.30;99.90
35970;DHT22;22448;51.298;6.430;2024-02-23T11:09:31;8.30;99.90
35970;DHT22;22448;51.298;6.430;2024-02-23T11:12:03;8.40;99.90
35970;DHT22;22448;51.298;6.430;2024-02-23T11:14:34;8.40;99.90
35970;DHT22;22448;51.298;6.430;2024-02-23T11:17:02;8.40;99.90
35970;DHT22;22448;51.298;6.430;2024-02-23T11:19:34;8.30;99.90
35970;DHT22;22448;51.298;6.430;2024-02-23T11:22:02;8.20;99.90
35970;DHT22;22448;51.298;6.430;2024-02-23T11:24:30;8.20;99.90
35970;DHT22;22448;51.298;6.430;2024-02-23T11:26:58;8.20;99.90
35970;DHT22;22448;51.298;6.430;2024-02-23T11:29:28;8.10;99.90
35970;DHT22;22448;51.298;6.430;2024-02-23T11:31:56;8.10;99.90
35970;DHT22;22448;51.298;6.430;2024-02-23T11:34:27;8.20;99.90
35970;DHT22;22448;51.298;6.430;2024-02-23T11:36:54;8.20;99.90
35970;DHT22;22448;51.298;6.430;2024-02-23T11:39:23;8.10;99.90
35970;DHT22;22448;51.298;6.430;2024-02-23T11:41:50;8.10;99.90
35970;DHT22;22448;51.298;6.430;2024-02-23T11:44:18;8.20;99.90
35970;DHT22;22448;51.298;6.430;2024-02-23T11:46:46;8.30;99.90
35970;DHT22;22448;51.298;6.430;2024-02-23T11:49:14;8.30;99.90
35970;DHT22;22448;51.298;6.430;2024-02-23T11:51:43;8.40;99.90
35970;DHT22;22448;51.298;6.430;2024-02-23T11:54:11;8.40;99.90
35970;DHT22;22448;51.298;6.430;2024-02-23T11:56:40;8.30;99.90
35970;DHT22;22448;51.298;6.430;2024-02-23T11:59:08;8.20;99.90
35970;DHT22;22448;51.298;6.430;2024-02-23T12:01:34;8.20;99.90
35970;DHT22;22448;51.298;6.430;2024-02-23T12:04:01;8.10;99.90
35970;DHT22;22448;51.298;6.430;2024-02-23T12:06:29;8.10;99.90
35970;DHT22;22448;51.298;6.430;2024-02-23T12:08:57;8.10;99.90
35970;DHT22;22448;51.298;6.430;2024-02-23T12:11:24;8.10;99.90
35970;DHT22;22448;51.298;6.430;2024-02-23T12:13:52;8.10;99.90
35970;DHT22;22448;51.298;6.430;2024-02-23T12:16:20;8.10;99.90
35970;DHT22;22448;51.298;6.430;2024-02-23T12:18:55;8.20;99.90
35970;DHT22;22448;51.298;6.430;2024-02-23T12:21:23;8.30;99.90
35970;DHT22;22448;51.298;6.430;2024-02-23T12:23:51;8.40;99.90
35970;DHT22;22448;51.298;6.430;2024-02-23T12:26:18;8.50;99.90
35970;DHT22;22448;51.298;6.430;2024-02-23T12:28:45;8.60;99.90
35970;DHT22;22448;51.298;6.430;2024-02-23T12:31:12;8.70;99.90
35970;DHT22;22448;51.298;6.430;2024-02-23T12:33:40;8.70;99.90
35970;DHT22;22448;51.298;6.430;2024-02-23T12:36:08;8.70;99.90
35970;DHT22;22448;51.298;6.430;2024-02-23T12:38:37;8.70;99.90
35970;DHT22;22448;51.298;6.430;2024-02-23T12:41:04;8.60;99.90
35970;DHT22;22448;51.298;6.430;2024-02-23T12:43:32;8.60;99.90
35970;DHT22;22448;51.298;6.430;2024-02-23T12:45:58;8.60;99.90
35970;DHT22;22448;51.298;6.430;2024-02-23T12:48:25;8.70;99.90
35970;DHT22;22448;51.298;6.430;2024-02-23T12:50:52;8.80;99.90
35970;DHT22;22448;51.298;6.430;2024-02-23T12:53:36;9.00;99.90
35970;DHT22;22448;51.298;6.430;2024-02-23T12:56:06;9.10;99.90
35970;DHT22;22448;51.298;6.430;2024-02-23T12:58:38;9.10;99.90
35970;DHT22;22448;51.298;6.430;2024-02-23T13:01:06;9.10;99.90
35970;DHT22;22448;51.298;6.430;2024-02-23T13:03:35;9.10;99.90
35970;DHT22;22448;51.298;6.430;2024-02-23T13:06:03;9.00;99.90
35970;DHT22;22448;51.298;6.430;2024-02-23T13:08:30;8.90;99.90
35970;DHT22;22448;51.298;6.430;2024-02-23T13:10:58;8.70;99.90
35970;DHT22;22448;51.298;6.430;2024-02-23T13:13:25;8.70;99.90
35970;DHT22;22448;51.298;6.430;2024-02-23T13:15:53;8.50;99.90
35970;DHT22;22448;51.298;6.430;2024-02-23T13:18:20;8.50;99.90
35970;DHT22;22448;51.298;6.430;2024-02-23T13:20:47;8.40;99.90
35970;DHT22;22448;51.298;6.430;2024-02-23T13:23:15;8.40;99.90
35970;DHT22;22448;51.298;6.430;2024-02-23T13:25:44;8.40;99.90
35970;DHT22;22448;51.298;6.430;2024-02-23T13:28:11;8.40;99.90
35970;DHT22;22448;51.298;6.430;2024-02-23T13:30:39;8.40;99.90
35970;DHT22;22448;51.298;6.430;2024-02-23T13:33:06;8.50;99.90
35970;DHT22;22448;51.298;6.430;2024-02-23T13:35:35;8.50;99.90
35970;DHT22;22448;51.298;6.430;2024-02-23T13:38:03;8.60;99.90
35970;DHT22;22448;51.298;6.430;2024-02-23T13:40:31;8.60;99.90
35970;DHT22;22448;51.298;6.430;2024-02-23T13:42:59;8.60;99.90
35970;DHT22;22448;51.298;6.430;2024-02-23T13:45:26;8.70;99.90
35970;DHT22;22448;51.298;6.430;2024-02-23T13:48:01;8.80;99.90
35970;DHT22;22448;51.298;6.430;2024-02-23T13:50:29;8.80;99.90
35970;DHT22;22448;51.298;6.430;2024-02-23T13:52:56;8.90;99.90
35970;DHT22;22448;51.298;6.430;2024-02-23T13:55:24;8.90;99.90
35970;DHT22;22448;51.298;6.430;2024-02-23T13:57:51;8.90;99.90
35970;DHT22;22448;51.298;6.430;2024-02-23T14:00:19;9.00;99.90
35970;DHT22;22448;51.298;6.430;2024-02-23T14:02:47;9.00;99.90
35970;DHT22;22448;51.298;6.430;2024-02-23T14:05:15;9.00;99.90
35970;DHT22;22448;51.298;6.430;2024-02-23T14:07:44;9.10;99.90
35970;DHT22;22448;51.298;6.430;2024-02-23T14:10:12;9.20;99.90
35970;DHT22;22448;51.298;6.430;2024-02-23T14:12:39;9.30;99.90
35970;DHT22;22448;51.298;6.430;2024-02-23T14:15:06;9.30;99.90
35970;DHT22;22448;51.298;6.430;2024-02-23T14:17:34;9.50;99.90
35970;DHT22;22448;51.298;6.430;2024-02-23T14:20:02;9.60;99.90
35970;DHT22;22448;51.298;6.430;2024-02-23T14:22:30;9.70;99.90
35970;DHT22;22448;51.298;6.430;2024-02-23T14:24:58;9.70;99.90
35970;DHT22;22448;51.298;6.430;2024-02-23T14:27:25;9.60;99.90
35970;DHT22;22448;51.298;6.430;2024-02-23T14:29:56;9.50;99.90
35970;DHT22;22448;51.298;6.430;2024-02-23T14:32:23;9.50;99.90
35970;DHT22;22448;51.298;6.430;2024-02-23T14:34:51;9.40;99.90
35970;DHT22;22448;51.298;6.430;2024-02-23T14:37:18;9.30;99.90
35970;DHT22;22448;51.298;6.430;2024-02-23T14:39:45;9.30;99.90
35970;DHT22;22448;51.298;6.430;2024-02-23T14:42:13;9.20;99.90
35970;DHT22;22448;51.298;6.430;2024-02-23T14:44:40;9.30;99.90
35970;DHT22;22448;51.298;6.430;2024-02-23T14:47:07;9.30;99.90
35970;DHT22;22448;51.298;6.430;2024-02-23T14:49:34;9.10;99.90
35970;DHT22;22448;51.298;6.430;2024-02-23T14:52:02;8.90;99.90
35970;DHT22;22448;51.298;6.430;2024-02-23T14:54:30;8.90;99.90
35970;DHT22;22448;51.298;6.430;2024-02-23T14:56:57;8.90;99.90
35970;DHT22;22448;51.298;6.430;2024-02-23T14:59:24;9.10;99.90
35970;DHT22;22448;51.298;6.430;2024-02-23T15:01:51;9.30;99.90
35970;DHT22;22448;51.298;6.430;2024-02-23T15:04:18;9.40;99.90
35970;DHT22;22448;51.298;6.430;2024-02-23T15:06:45;9.40;99.90
35970;DHT22;22448;51.298;6.430;2024-02-23T15:09:12;9.20;99.90
35970;DHT22;22448;51.298;6.430;2024-02-23T15:11:39;8.90;99.90
35970;DHT22;22448;51.298;6.430;2024-02-23T15:14:06;8.70;99.90
35970;DHT22;22448;51.298;6.430;2024-02-23T15:16:34;8.60;99.90
35970;DHT22;22448;51.298;6.430;2024-02-23T15:19:01;8.50;99.90
35970;DHT22;22448;51.298;6.430;2024-02-23T15:21:30;8.50;99.90
35970;DHT22;22448;51.298;6.430;2024-02-23T15:23:57;8.50;99.90
35970;DHT22;22448;51.298;6.430;2024-02-23T15:26:25;8.60;99.90
35970;DHT22;22448;51.298;6.430;2024-02-23T15:28:52;8.70;99.90
35970;DHT22;22448;51.298;6.430;2024-02-23T15:31:20;8.80;99.90
35970;DHT22;22448;51.298;6.430;2024-02-23T15:33:48;8.80;99.90
35970;DHT22;22448;51.298;6.430;2024-02-23T15:36:15;8.90;99.90
35970;DHT22;22448;51.298;6.430;2024-02-23T15:38:42;8.80;99.90
35970;DHT22;22448;51.298;6.430;2024-02-23T15:41:09;8.80;99.90
35970;DHT22;22448;51.298;6.430;2024-02-23T15:43:37;8.70;99.90
35970;DHT22;22448;51.298;6.430;2024-02-23T15:46:04;8.70;99.90
35970;DHT22;22448;51.298;6.430;2024-02-23T15:48:31;8.60;99.90